sensor_id;sensor_type;location;lat;lon;timestamp;P1;durP1;ratioP1;P2;durP2;ratioP2
14550;SDS011;7362;50.956;4.184;2022-10-22T00:02:00;4.60;;;2.60;;
14550;SDS011;7362;50.956;4.184;2022-10-22T00:04:26;6.45;;;2.75;;
14550;SDS011;7362;50.956;4.184;2022-10-22T00:06:53;7.93;;;3.13;;
14550;SDS011;7362;50.956;4.184;2022-10-22T00:09:20;5.88;;;2.80;;
14550;SDS011;7362;50.956;4.184;2022-10-22T00:11:46;6.18;;;2.72;;
14550;SDS011;7362;50.956;4.184;2022-10-22T00:14:12;7.13;;;2.70;;
14550;SDS011;7362;50.956;4.184;2022-10-22T00:16:39;4.55;;;2.58;;
14550;SDS011;7362;50.956;4.184;2022-10-22T00:19:08;7.15;;;2.75;;
14550;SDS011;7362;50.956;4.184;2022-10-22T00:21:35;8.70;;;2.83;;
14550;SDS011;7362;50.956;4.184;2022-10-22T00:33:24;7.22;;;2.40;;
14550;SDS011;7362;50.956;4.184;2022-10-22T00:35:52;7.20;;;2.65;;
14550;SDS011;7362;50.956;4.184;2022-10-22T00:38:20;6.30;;;2.50;;
14550;SDS011;7362;50.956;4.184;2022-10-22T00:40:47;6.47;;;2.25;;
14550;SDS011;7362;50.956;4.184;2022-10-22T00:43:23;9.35;;;3.50;;
14550;SDS011;7362;50.956;4.184;2022-10-22T00:51:58;7.68;;;2.92;;
14550;SDS011;7362;50.956;4.184;2022-10-22T00:54:24;5.70;;;2.28;;
14550;SDS011;7362;50.956;4.184;2022-10-22T00:56:52;5.38;;;2.85;;
14550;SDS011;7362;50.956;4.184;2022-10-22T00:59:24;8.15;;;2.67;;
14550;SDS011;7362;50.956;4.184;2022-10-22T01:01:49;7.03;;;2.28;;
14550;SDS011;7362;50.956;4.184;2022-10-22T01:04:18;11.32;;;2.30;;
14550;SDS011;7362;50.956;4.184;2022-10-22T01:06:45;6.53;;;2.85;;
14550;SDS011;7362;50.956;4.184;2022-10-22T01:12:22;4.55;;;2.17;;
14550;SDS011;7362;50.956;4.184;2022-10-22T01:17:49;10.90;;;2.90;;
14550;SDS011;7362;50.956;4.184;2022-10-22T01:31:00;12.40;;;2.72;;
14550;SDS011;7362;50.956;4.184;2022-10-22T01:33:27;7.10;;;2.55;;
14550;SDS011;7362;50.956;4.184;2022-10-22T01:35:54;5.80;;;2.58;;
14550;SDS011;7362;50.956;4.184;2022-10-22T01:38:21;7.50;;;2.08;;
14550;SDS011;7362;50.956;4.184;2022-10-22T01:40:49;9.23;;;2.47;;
14550;SDS011;7362;50.956;4.184;2022-10-22T01:43:16;3.53;;;1.80;;
14550;SDS011;7362;50.956;4.184;2022-10-22T01:45:46;16.40;;;3.78;;
14550;SDS011;7362;50.956;4.184;2022-10-22T01:53:51;4.05;;;2.13;;
14550;SDS011;7362;50.956;4.184;2022-10-22T01:59:14;7.43;;;2.50;;
14550;SDS011;7362;50.956;4.184;2022-10-22T02:05:02;3.45;;;1.77;;
14550;SDS011;7362;50.956;4.184;2022-10-22T02:07:40;4.70;;;1.63;;
14550;SDS011;7362;50.956;4.184;2022-10-22T02:10:09;4.85;;;2.00;;
14550;SDS011;7362;50.956;4.184;2022-10-22T02:12:37;9.95;;;2.90;;
14550;SDS011;7362;50.956;4.184;2022-10-22T02:15:04;5.72;;;2.22;;
14550;SDS011;7362;50.956;4.184;2022-10-22T02:17:31;5.28;;;1.83;;
14550;SDS011;7362;50.956;4.184;2022-10-22T02:20:07;5.00;;;2.15;;
14550;SDS011;7362;50.956;4.184;2022-10-22T02:22:37;6.40;;;2.13;;
14550;SDS011;7362;50.956;4.184;2022-10-22T02:25:04;5.25;;;2.10;;
14550;SDS011;7362;50.956;4.184;2022-10-22T02:27:41;2.95;;;1.50;;
14550;SDS011;7362;50.956;4.184;2022-10-22T02:30:23;11.55;;;2.35;;
14550;SDS011;7362;50.956;4.184;2022-10-22T02:33:00;4.57;;;1.55;;
14550;SDS011;7362;50.956;4.184;2022-10-22T02:35:32;5.60;;;1.60;;
14550;SDS011;7362;50.956;4.184;2022-10-22T02:37:59;4.07;;;1.98;;
14550;SDS011;7362;50.956;4.184;2022-10-22T02:40:26;9.48;;;2.63;;
14550;SDS011;7362;50.956;4.184;2022-10-22T02:42:54;5.80;;;1.88;;
14550;SDS011;7362;50.956;4.184;2022-10-22T02:45:20;5.68;;;2.22;;
14550;SDS011;7362;50.956;4.184;2022-10-22T02:47:46;7.22;;;1.90;;
14550;SDS011;7362;50.956;4.184;2022-10-22T02:50:12;3.63;;;1.48;;
14550;SDS011;7362;50.956;4.184;2022-10-22T02:52:38;5.10;;;2.15;;
14550;SDS011;7362;50.956;4.184;2022-10-22T02:55:05;6.55;;;2.08;;
14550;SDS011;7362;50.956;4.184;2022-10-22T02:57:32;6.57;;;1.88;;
14550;SDS011;7362;50.956;4.184;2022-10-22T02:59:58;5.47;;;1.92;;
14550;SDS011;7362;50.956;4.184;2022-10-22T03:02:24;5.88;;;1.80;;
14550;SDS011;7362;50.956;4.184;2022-10-22T03:04:52;4.88;;;1.58;;
14550;SDS011;7362;50.956;4.184;2022-10-22T03:07:18;3.05;;;1.40;;
14550;SDS011;7362;50.956;4.184;2022-10-22T03:09:45;8.27;;;1.73;;
14550;SDS011;7362;50.956;4.184;2022-10-22T03:12:11;5.50;;;1.77;;
14550;SDS011;7362;50.956;4.184;2022-10-22T03:14:36;5.53;;;1.70;;
14550;SDS011;7362;50.956;4.184;2022-10-22T03:17:02;7.25;;;1.95;;
14550;SDS011;7362;50.956;4.184;2022-10-22T03:19:27;3.47;;;1.38;;
14550;SDS011;7362;50.956;4.184;2022-10-22T03:22:01;5.05;;;1.63;;
14550;SDS011;7362;50.956;4.184;2022-10-22T03:24:30;6.50;;;1.95;;
14550;SDS011;7362;50.956;4.184;2022-10-22T03:27:01;4.90;;;1.80;;
14550;SDS011;7362;50.956;4.184;2022-10-22T03:29:27;6.75;;;2.60;;
14550;SDS011;7362;50.956;4.184;2022-10-22T03:31:55;7.25;;;2.53;;
14550;SDS011;7362;50.956;4.184;2022-10-22T03:34:21;6.72;;;2.40;;
14550;SDS011;7362;50.956;4.184;2022-10-22T03:36:47;5.43;;;1.98;;
14550;SDS011;7362;50.956;4.184;2022-10-22T03:39:15;4.47;;;1.40;;
14550;SDS011;7362;50.956;4.184;2022-10-22T03:41:42;6.80;;;1.40;;
14550;SDS011;7362;50.956;4.184;2022-10-22T03:44:08;8.05;;;2.00;;
14550;SDS011;7362;50.956;4.184;2022-10-22T03:46:35;6.82;;;2.17;;
14550;SDS011;7362;50.956;4.184;2022-10-22T03:49:03;5.78;;;1.60;;
14550;SDS011;7362;50.956;4.184;2022-10-22T03:54:51;7.63;;;1.88;;
14550;SDS011;7362;50.956;4.184;2022-10-22T03:57:18;4.97;;;1.45;;
14550;SDS011;7362;50.956;4.184;2022-10-22T03:59:44;6.70;;;1.60;;
14550;SDS011;7362;50.956;4.184;2022-10-22T04:02:10;6.97;;;2.05;;
14550;SDS011;7362;50.956;4.184;2022-10-22T04:04:37;5.40;;;1.60;;
14550;SDS011;7362;50.956;4.184;2022-10-22T04:07:04;4.97;;;1.42;;
14550;SDS011;7362;50.956;4.184;2022-10-22T04:09:31;5.93;;;1.25;;
14550;SDS011;7362;50.956;4.184;2022-10-22T04:11:57;8.80;;;1.67;;
14550;SDS011;7362;50.956;4.184;2022-10-22T04:14:23;5.15;;;1.70;;
14550;SDS011;7362;50.956;4.184;2022-10-22T04:16:49;3.95;;;1.50;;
14550;SDS011;7362;50.956;4.184;2022-10-22T04:19:14;4.93;;;1.70;;
14550;SDS011;7362;50.956;4.184;2022-10-22T04:21:40;3.47;;;1.48;;
14550;SDS011;7362;50.956;4.184;2022-10-22T04:24:09;4.65;;;1.55;;
14550;SDS011;7362;50.956;4.184;2022-10-22T04:26:35;4.35;;;1.48;;
14550;SDS011;7362;50.956;4.184;2022-10-22T04:29:01;6.90;;;1.75;;
14550;SDS011;7362;50.956;4.184;2022-10-22T04:31:27;4.95;;;1.35;;
14550;SDS011;7362;50.956;4.184;2022-10-22T04:33:54;5.82;;;1.52;;
14550;SDS011;7362;50.956;4.184;2022-10-22T04:36:22;9.23;;;1.70;;
14550;SDS011;7362;50.956;4.184;2022-10-22T04:38:55;10.15;;;2.28;;
14550;SDS011;7362;50.956;4.184;2022-10-22T04:41:24;6.07;;;1.67;;
14550;SDS011;7362;50.956;4.184;2022-10-22T04:43:53;5.53;;;1.40;;
14550;SDS011;7362;50.956;4.184;2022-10-22T04:46:20;5.18;;;1.73;;
14550;SDS011;7362;50.956;4.184;2022-10-22T04:49:02;7.25;;;1.65;;
14550;SDS011;7362;50.956;4.184;2022-10-22T04:57:07;5.25;;;1.35;;
14550;SDS011;7362;50.956;4.184;2022-10-22T04:59:45;7.38;;;1.65;;
14550;SDS011;7362;50.956;4.184;2022-10-22T05:02:12;9.82;;;2.08;;
14550;SDS011;7362;50.956;4.184;2022-10-22T05:04:38;5.18;;;1.25;;
14550;SDS011;7362;50.956;4.184;2022-10-22T05:07:03;6.90;;;1.55;;
14550;SDS011;7362;50.956;4.184;2022-10-22T05:09:29;5.75;;;1.45;;
14550;SDS011;7362;50.956;4.184;2022-10-22T05:11:55;4.80;;;1.80;;
14550;SDS011;7362;50.956;4.184;2022-10-22T05:14:21;4.30;;;1.23;;
14550;SDS011;7362;50.956;4.184;2022-10-22T05:16:51;3.95;;;1.42;;
14550;SDS011;7362;50.956;4.184;2022-10-22T05:19:18;5.60;;;2.20;;
14550;SDS011;7362;50.956;4.184;2022-10-22T05:21:48;4.95;;;1.90;;
14550;SDS011;7362;50.956;4.184;2022-10-22T05:24:14;8.93;;;1.92;;
14550;SDS011;7362;50.956;4.184;2022-10-22T05:26:40;10.07;;;1.92;;
14550;SDS011;7362;50.956;4.184;2022-10-22T05:29:06;7.28;;;1.77;;
14550;SDS011;7362;50.956;4.184;2022-10-22T05:31:32;8.40;;;1.45;;
14550;SDS011;7362;50.956;4.184;2022-10-22T05:33:58;7.13;;;1.83;;
14550;SDS011;7362;50.956;4.184;2022-10-22T05:36:23;8.70;;;1.75;;
14550;SDS011;7362;50.956;4.184;2022-10-22T05:38:49;6.90;;;2.10;;
14550;SDS011;7362;50.956;4.184;2022-10-22T05:41:20;4.68;;;1.48;;
14550;SDS011;7362;50.956;4.184;2022-10-22T05:43:47;4.95;;;1.48;;
14550;SDS011;7362;50.956;4.184;2022-10-22T05:46:15;6.82;;;1.58;;
14550;SDS011;7362;50.956;4.184;2022-10-22T05:48:47;4.95;;;1.52;;
14550;SDS011;7362;50.956;4.184;2022-10-22T05:51:14;10.00;;;1.98;;
14550;SDS011;7362;50.956;4.184;2022-10-22T05:53:40;5.35;;;1.35;;
14550;SDS011;7362;50.956;4.184;2022-10-22T05:56:12;4.15;;;1.48;;
14550;SDS011;7362;50.956;4.184;2022-10-22T05:58:40;7.32;;;1.55;;
14550;SDS011;7362;50.956;4.184;2022-10-22T06:01:23;7.28;;;2.30;;
14550;SDS011;7362;50.956;4.184;2022-10-22T06:04:10;7.72;;;1.65;;
14550;SDS011;7362;50.956;4.184;2022-10-22T06:06:38;5.10;;;1.67;;
14550;SDS011;7362;50.956;4.184;2022-10-22T06:11:52;4.85;;;1.33;;
14550;SDS011;7362;50.956;4.184;2022-10-22T06:14:19;6.15;;;1.85;;
14550;SDS011;7362;50.956;4.184;2022-10-22T06:16:52;7.20;;;1.83;;
14550;SDS011;7362;50.956;4.184;2022-10-22T06:19:23;9.32;;;2.45;;
14550;SDS011;7362;50.956;4.184;2022-10-22T06:21:50;4.70;;;1.45;;
14550;SDS011;7362;50.956;4.184;2022-10-22T06:24:16;6.25;;;1.73;;
14550;SDS011;7362;50.956;4.184;2022-10-22T06:26:43;6.50;;;1.55;;
14550;SDS011;7362;50.956;4.184;2022-10-22T06:29:11;6.53;;;1.42;;
14550;SDS011;7362;50.956;4.184;2022-10-22T06:31:39;3.83;;;1.50;;
14550;SDS011;7362;50.956;4.184;2022-10-22T06:34:06;3.67;;;1.25;;
14550;SDS011;7362;50.956;4.184;2022-10-22T06:36:37;5.45;;;1.70;;
14550;SDS011;7362;50.956;4.184;2022-10-22T06:39:25;6.78;;;1.90;;
14550;SDS011;7362;50.956;4.184;2022-10-22T06:41:51;3.90;;;1.20;;
14550;SDS011;7362;50.956;4.184;2022-10-22T06:44:17;5.80;;;1.40;;
14550;SDS011;7362;50.956;4.184;2022-10-22T06:46:47;4.18;;;1.33;;
14550;SDS011;7362;50.956;4.184;2022-10-22T06:49:16;7.60;;;2.20;;
14550;SDS011;7362;50.956;4.184;2022-10-22T06:51:43;6.78;;;1.65;;
14550;SDS011;7362;50.956;4.184;2022-10-22T06:54:10;6.47;;;1.92;;
14550;SDS011;7362;50.956;4.184;2022-10-22T06:56:36;4.00;;;2.13;;
14550;SDS011;7362;50.956;4.184;2022-10-22T06:59:03;7.97;;;2.10;;
14550;SDS011;7362;50.956;4.184;2022-10-22T07:01:30;5.80;;;2.05;;
14550;SDS011;7362;50.956;4.184;2022-10-22T07:03:57;4.93;;;1.42;;
14550;SDS011;7362;50.956;4.184;2022-10-22T07:06:25;7.38;;;2.35;;
14550;SDS011;7362;50.956;4.184;2022-10-22T07:12:16;3.80;;;1.30;;
14550;SDS011;7362;50.956;4.184;2022-10-22T07:17:51;8.52;;;1.90;;
14550;SDS011;7362;50.956;4.184;2022-10-22T07:20:17;6.32;;;1.95;;
14550;SDS011;7362;50.956;4.184;2022-10-22T07:22:45;7.72;;;1.80;;
14550;SDS011;7362;50.956;4.184;2022-10-22T07:25:11;5.70;;;1.73;;
14550;SDS011;7362;50.956;4.184;2022-10-22T07:27:37;6.85;;;2.30;;
14550;SDS011;7362;50.956;4.184;2022-10-22T07:30:03;5.95;;;1.90;;
14550;SDS011;7362;50.956;4.184;2022-10-22T07:32:31;5.85;;;1.60;;
14550;SDS011;7362;50.956;4.184;2022-10-22T07:35:01;4.20;;;1.70;;
14550;SDS011;7362;50.956;4.184;2022-10-22T07:37:27;4.38;;;1.52;;
14550;SDS011;7362;50.956;4.184;2022-10-22T07:40:04;7.25;;;1.77;;
14550;SDS011;7362;50.956;4.184;2022-10-22T07:42:35;6.25;;;1.63;;
14550;SDS011;7362;50.956;4.184;2022-10-22T07:45:02;6.07;;;1.80;;
14550;SDS011;7362;50.956;4.184;2022-10-22T07:47:30;6.75;;;1.95;;
14550;SDS011;7362;50.956;4.184;2022-10-22T07:49:57;6.18;;;1.70;;
14550;SDS011;7362;50.956;4.184;2022-10-22T07:52:23;6.55;;;1.63;;
14550;SDS011;7362;50.956;4.184;2022-10-22T07:54:53;7.47;;;1.42;;
14550;SDS011;7362;50.956;4.184;2022-10-22T07:57:39;6.30;;;1.40;;
14550;SDS011;7362;50.956;4.184;2022-10-22T08:00:06;6.45;;;2.15;;
14550;SDS011;7362;50.956;4.184;2022-10-22T08:02:33;6.80;;;1.92;;
14550;SDS011;7362;50.956;4.184;2022-10-22T08:05:00;10.40;;;2.00;;
14550;SDS011;7362;50.956;4.184;2022-10-22T08:07:26;5.22;;;1.85;;
14550;SDS011;7362;50.956;4.184;2022-10-22T08:09:53;5.35;;;1.60;;
14550;SDS011;7362;50.956;4.184;2022-10-22T08:12:22;6.95;;;1.65;;
14550;SDS011;7362;50.956;4.184;2022-10-22T08:14:48;8.80;;;1.83;;
14550;SDS011;7362;50.956;4.184;2022-10-22T08:17:15;9.35;;;2.28;;
14550;SDS011;7362;50.956;4.184;2022-10-22T08:19:46;5.43;;;1.80;;
14550;SDS011;7362;50.956;4.184;2022-10-22T08:25:10;4.65;;;1.52;;
14550;SDS011;7362;50.956;4.184;2022-10-22T08:27:44;7.50;;;1.35;;
14550;SDS011;7362;50.956;4.184;2022-10-22T08:30:15;4.68;;;2.08;;
14550;SDS011;7362;50.956;4.184;2022-10-22T08:32:42;3.72;;;1.35;;
14550;SDS011;7362;50.956;4.184;2022-10-22T08:35:09;6.57;;;1.70;;
14550;SDS011;7362;50.956;4.184;2022-10-22T08:37:42;6.25;;;1.65;;
14550;SDS011;7362;50.956;4.184;2022-10-22T08:40:10;11.60;;;2.03;;
14550;SDS011;7362;50.956;4.184;2022-10-22T08:48:50;8.10;;;1.65;;
14550;SDS011;7362;50.956;4.184;2022-10-22T08:51:26;3.90;;;1.85;;
14550;SDS011;7362;50.956;4.184;2022-10-22T08:56:53;3.55;;;1.30;;
14550;SDS011;7362;50.956;4.184;2022-10-22T08:59:33;11.00;;;2.38;;
14550;SDS011;7362;50.956;4.184;2022-10-22T09:02:03;5.43;;;2.38;;
14550;SDS011;7362;50.956;4.184;2022-10-22T09:04:39;6.55;;;1.70;;
14550;SDS011;7362;50.956;4.184;2022-10-22T09:07:10;6.55;;;2.08;;
14550;SDS011;7362;50.956;4.184;2022-10-22T09:09:48;5.72;;;1.85;;
14550;SDS011;7362;50.956;4.184;2022-10-22T09:12:21;7.90;;;2.08;;
14550;SDS011;7362;50.956;4.184;2022-10-22T09:14:59;4.80;;;2.13;;
14550;SDS011;7362;50.956;4.184;2022-10-22T09:27:13;4.90;;;1.75;;
14550;SDS011;7362;50.956;4.184;2022-10-22T09:29:43;7.85;;;1.63;;
14550;SDS011;7362;50.956;4.184;2022-10-22T09:32:09;9.43;;;1.63;;
14550;SDS011;7362;50.956;4.184;2022-10-22T09:34:36;5.65;;;1.77;;
14550;SDS011;7362;50.956;4.184;2022-10-22T09:37:04;9.32;;;2.40;;
14550;SDS011;7362;50.956;4.184;2022-10-22T09:39:37;8.25;;;2.35;;
14550;SDS011;7362;50.956;4.184;2022-10-22T09:42:06;5.65;;;1.58;;
14550;SDS011;7362;50.956;4.184;2022-10-22T09:44:39;5.60;;;1.77;;
14550;SDS011;7362;50.956;4.184;2022-10-22T09:56:33;7.20;;;2.30;;
14550;SDS011;7362;50.956;4.184;2022-10-22T09:59:02;5.38;;;1.85;;
14550;SDS011;7362;50.956;4.184;2022-10-22T10:01:55;6.88;;;1.90;;
14550;SDS011;7362;50.956;4.184;2022-10-22T10:04:23;5.35;;;1.90;;
14550;SDS011;7362;50.956;4.184;2022-10-22T10:06:52;9.90;;;2.38;;
14550;SDS011;7362;50.956;4.184;2022-10-22T10:09:24;6.63;;;1.60;;
14550;SDS011;7362;50.956;4.184;2022-10-22T10:15:00;6.55;;;2.50;;
14550;SDS011;7362;50.956;4.184;2022-10-22T10:17:45;6.38;;;2.00;;
14550;SDS011;7362;50.956;4.184;2022-10-22T10:20:40;9.32;;;2.00;;
14550;SDS011;7362;50.956;4.184;2022-10-22T10:23:19;4.57;;;1.90;;
14550;SDS011;7362;50.956;4.184;2022-10-22T10:32:12;6.35;;;1.80;;
14550;SDS011;7362;50.956;4.184;2022-10-22T10:41:50;6.97;;;1.60;;
14550;SDS011;7362;50.956;4.184;2022-10-22T10:47:55;5.50;;;1.75;;
14550;SDS011;7362;50.956;4.184;2022-10-22T10:54:05;5.43;;;1.75;;
14550;SDS011;7362;50.956;4.184;2022-10-22T10:57:31;13.75;;;2.00;;
14550;SDS011;7362;50.956;4.184;2022-10-22T11:00:13;7.13;;;2.03;;
14550;SDS011;7362;50.956;4.184;2022-10-22T11:06:01;7.85;;;2.42;;
14550;SDS011;7362;50.956;4.184;2022-10-22T11:11:05;6.03;;;1.60;;
14550;SDS011;7362;50.956;4.184;2022-10-22T11:16:29;6.50;;;2.10;;
14550;SDS011;7362;50.956;4.184;2022-10-22T11:25:43;7.47;;;1.67;;
14550;SDS011;7362;50.956;4.184;2022-10-22T11:31:15;3.50;;;1.40;;
14550;SDS011;7362;50.956;4.184;2022-10-22T11:34:00;6.28;;;1.83;;
14550;SDS011;7362;50.956;4.184;2022-10-22T11:36:31;4.55;;;1.55;;
14550;SDS011;7362;50.956;4.184;2022-10-22T11:39:01;4.50;;;1.33;;
14550;SDS011;7362;50.956;4.184;2022-10-22T11:41:29;10.07;;;2.03;;
14550;SDS011;7362;50.956;4.184;2022-10-22T11:44:07;7.60;;;2.20;;
14550;SDS011;7362;50.956;4.184;2022-10-22T11:46:45;4.72;;;1.50;;
14550;SDS011;7362;50.956;4.184;2022-10-22T11:49:24;4.20;;;1.40;;
14550;SDS011;7362;50.956;4.184;2022-10-22T11:52:22;5.53;;;1.75;;
14550;SDS011;7362;50.956;4.184;2022-10-22T11:55:02;6.95;;;1.42;;
14550;SDS011;7362;50.956;4.184;2022-10-22T12:07:24;5.53;;;1.45;;
14550;SDS011;7362;50.956;4.184;2022-10-22T12:10:28;5.00;;;1.75;;
14550;SDS011;7362;50.956;4.184;2022-10-22T12:20:00;6.65;;;1.38;;
14550;SDS011;7362;50.956;4.184;2022-10-22T12:22:34;5.88;;;1.73;;
14550;SDS011;7362;50.956;4.184;2022-10-22T12:25:17;5.60;;;1.35;;
14550;SDS011;7362;50.956;4.184;2022-10-22T12:27:53;4.80;;;1.50;;
14550;SDS011;7362;50.956;4.184;2022-10-22T12:30:47;4.25;;;1.38;;
14550;SDS011;7362;50.956;4.184;2022-10-22T12:33:20;7.93;;;1.83;;
14550;SDS011;7362;50.956;4.184;2022-10-22T12:35:49;4.90;;;1.50;;
14550;SDS011;7362;50.956;4.184;2022-10-22T12:38:23;4.07;;;1.40;;
14550;SDS011;7362;50.956;4.184;2022-10-22T12:40:53;4.07;;;1.80;;
14550;SDS011;7362;50.956;4.184;2022-10-22T12:43:27;8.73;;;1.70;;
14550;SDS011;7362;50.956;4.184;2022-10-22T12:45:57;6.68;;;1.65;;
14550;SDS011;7362;50.956;4.184;2022-10-22T12:48:26;5.63;;;1.48;;
14550;SDS011;7362;50.956;4.184;2022-10-22T12:51:02;5.53;;;1.70;;
14550;SDS011;7362;50.956;4.184;2022-10-22T12:53:33;6.05;;;1.45;;
14550;SDS011;7362;50.956;4.184;2022-10-22T12:58:56;7.72;;;1.80;;
14550;SDS011;7362;50.956;4.184;2022-10-22T13:01:44;9.77;;;4.40;;
14550;SDS011;7362;50.956;4.184;2022-10-22T13:11:36;8.73;;;2.33;;
14550;SDS011;7362;50.956;4.184;2022-10-22T13:20:57;4.65;;;1.30;;
14550;SDS011;7362;50.956;4.184;2022-10-22T13:23:33;3.45;;;1.45;;
14550;SDS011;7362;50.956;4.184;2022-10-22T13:26:15;4.70;;;1.58;;
14550;SDS011;7362;50.956;4.184;2022-10-22T13:28:53;5.43;;;1.40;;
14550;SDS011;7362;50.956;4.184;2022-10-22T13:31:26;5.78;;;1.55;;
14550;SDS011;7362;50.956;4.184;2022-10-22T13:34:00;7.70;;;2.20;;
14550;SDS011;7362;50.956;4.184;2022-10-22T13:36:37;7.25;;;1.58;;
14550;SDS011;7362;50.956;4.184;2022-10-22T13:39:15;6.68;;;1.48;;
14550;SDS011;7362;50.956;4.184;2022-10-22T13:45:08;4.97;;;1.50;;
14550;SDS011;7362;50.956;4.184;2022-10-22T13:54:21;5.97;;;2.03;;
14550;SDS011;7362;50.956;4.184;2022-10-22T14:02:56;4.07;;;1.30;;
14550;SDS011;7362;50.956;4.184;2022-10-22T14:08:46;4.43;;;1.58;;
14550;SDS011;7362;50.956;4.184;2022-10-22T14:11:16;2.63;;;1.48;;
14550;SDS011;7362;50.956;4.184;2022-10-22T14:13:50;4.03;;;1.58;;
14550;SDS011;7362;50.956;4.184;2022-10-22T14:16:26;7.25;;;2.08;;
14550;SDS011;7362;50.956;4.184;2022-10-22T14:19:06;4.28;;;1.40;;
14550;SDS011;7362;50.956;4.184;2022-10-22T14:21:39;5.40;;;1.77;;
14550;SDS011;7362;50.956;4.184;2022-10-22T14:24:08;4.57;;;1.45;;
14550;SDS011;7362;50.956;4.184;2022-10-22T14:26:37;11.25;;;1.60;;
14550;SDS011;7362;50.956;4.184;2022-10-22T14:29:03;3.40;;;1.15;;
14550;SDS011;7362;50.956;4.184;2022-10-22T14:31:32;6.07;;;1.80;;
14550;SDS011;7362;50.956;4.184;2022-10-22T14:37:23;5.47;;;1.75;;
14550;SDS011;7362;50.956;4.184;2022-10-22T14:39:51;3.88;;;1.65;;
14550;SDS011;7362;50.956;4.184;2022-10-22T14:42:27;3.72;;;1.48;;
14550;SDS011;7362;50.956;4.184;2022-10-22T14:54:05;6.72;;;1.63;;
14550;SDS011;7362;50.956;4.184;2022-10-22T14:56:52;7.07;;;1.52;;
14550;SDS011;7362;50.956;4.184;2022-10-22T14:59:18;5.30;;;1.65;;
14550;SDS011;7362;50.956;4.184;2022-10-22T15:05:29;5.30;;;1.95;;
14550;SDS011;7362;50.956;4.184;2022-10-22T15:08:05;3.03;;;1.20;;
14550;SDS011;7362;50.956;4.184;2022-10-22T15:10:40;4.90;;;1.65;;
14550;SDS011;7362;50.956;4.184;2022-10-22T15:13:35;8.48;;;2.17;;
14550;SDS011;7362;50.956;4.184;2022-10-22T15:16:33;5.90;;;1.65;;
14550;SDS011;7362;50.956;4.184;2022-10-22T15:25:07;4.10;;;1.30;;
14550;SDS011;7362;50.956;4.184;2022-10-22T15:31:02;4.57;;;1.52;;
14550;SDS011;7362;50.956;4.184;2022-10-22T15:33:49;4.90;;;1.40;;
14550;SDS011;7362;50.956;4.184;2022-10-22T15:36:26;4.13;;;1.73;;
14550;SDS011;7362;50.956;4.184;2022-10-22T15:44:43;6.28;;;1.85;;
14550;SDS011;7362;50.956;4.184;2022-10-22T15:54:03;10.43;;;2.53;;
14550;SDS011;7362;50.956;4.184;2022-10-22T15:56:32;4.18;;;1.40;;
14550;SDS011;7362;50.956;4.184;2022-10-22T15:59:21;9.60;;;1.85;;
14550;SDS011;7362;50.956;4.184;2022-10-22T16:02:34;6.68;;;2.05;;
14550;SDS011;7362;50.956;4.184;2022-10-22T16:05:50;4.75;;;1.77;;
14550;SDS011;7362;50.956;4.184;2022-10-22T16:08:28;9.15;;;2.58;;
14550;SDS011;7362;50.956;4.184;2022-10-22T16:11:03;7.85;;;2.03;;
14550;SDS011;7362;50.956;4.184;2022-10-22T16:14:10;4.63;;;2.03;;
14550;SDS011;7362;50.956;4.184;2022-10-22T16:23:25;7.03;;;2.17;;
14550;SDS011;7362;50.956;4.184;2022-10-22T16:26:52;7.30;;;2.20;;
14550;SDS011;7362;50.956;4.184;2022-10-22T16:35:41;8.85;;;2.75;;
14550;SDS011;7362;50.956;4.184;2022-10-22T16:41:50;7.82;;;2.50;;
14550;SDS011;7362;50.956;4.184;2022-10-22T16:44:21;3.78;;;2.05;;
14550;SDS011;7362;50.956;4.184;2022-10-22T16:52:41;5.85;;;2.42;;
14550;SDS011;7362;50.956;4.184;2022-10-22T17:09:48;7.45;;;2.92;;
14550;SDS011;7362;50.956;4.184;2022-10-22T17:17:48;8.85;;;3.78;;
14550;SDS011;7362;50.956;4.184;2022-10-22T17:20:33;8.02;;;4.07;;
14550;SDS011;7362;50.956;4.184;2022-10-22T17:23:01;11.50;;;4.53;;
14550;SDS011;7362;50.956;4.184;2022-10-22T17:32:18;8.82;;;4.38;;
14550;SDS011;7362;50.956;4.184;2022-10-22T17:38:58;10.57;;;6.07;;
14550;SDS011;7362;50.956;4.184;2022-10-22T17:44:35;9.90;;;5.80;;
14550;SDS011;7362;50.956;4.184;2022-10-22T17:47:20;7.80;;;4.82;;
14550;SDS011;7362;50.956;4.184;2022-10-22T17:50:08;8.68;;;4.00;;
14550;SDS011;7362;50.956;4.184;2022-10-22T17:55:40;9.32;;;4.10;;
14550;SDS011;7362;50.956;4.184;2022-10-22T18:01:31;5.03;;;2.72;;
14550;SDS011;7362;50.956;4.184;2022-10-22T18:04:23;7.88;;;3.10;;
14550;SDS011;7362;50.956;4.184;2022-10-22T18:12:51;7.00;;;4.20;;
14550;SDS011;7362;50.956;4.184;2022-10-22T18:15:56;9.77;;;4.10;;
14550;SDS011;7362;50.956;4.184;2022-10-22T18:28:14;11.23;;;6.03;;
14550;SDS011;7362;50.956;4.184;2022-10-22T18:33:58;9.88;;;4.53;;
14550;SDS011;7362;50.956;4.184;2022-10-22T18:39:53;8.57;;;4.63;;
14550;SDS011;7362;50.956;4.184;2022-10-22T18:45:54;11.65;;;5.22;;
14550;SDS011;7362;50.956;4.184;2022-10-22T18:48:58;11.75;;;4.18;;
14550;SDS011;7362;50.956;4.184;2022-10-22T19:01:14;11.95;;;4.82;;
14550;SDS011;7362;50.956;4.184;2022-10-22T19:04:06;10.63;;;4.20;;
14550;SDS011;7362;50.956;4.184;2022-10-22T19:06:45;9.15;;;4.18;;
14550;SDS011;7362;50.956;4.184;2022-10-22T19:09:44;11.23;;;4.28;;
14550;SDS011;7362;50.956;4.184;2022-10-22T19:15:16;11.93;;;4.88;;
14550;SDS011;7362;50.956;4.184;2022-10-22T19:18:10;12.98;;;4.15;;
14550;SDS011;7362;50.956;4.184;2022-10-22T19:21:42;8.05;;;4.13;;
14550;SDS011;7362;50.956;4.184;2022-10-22T19:43:39;8.20;;;4.15;;
14550;SDS011;7362;50.956;4.184;2022-10-22T19:46:41;10.60;;;4.22;;
14550;SDS011;7362;50.956;4.184;2022-10-22T19:49:13;6.22;;;3.55;;
14550;SDS011;7362;50.956;4.184;2022-10-22T19:51:39;9.32;;;4.25;;
14550;SDS011;7362;50.956;4.184;2022-10-22T19:54:36;8.85;;;3.88;;
14550;SDS011;7362;50.956;4.184;2022-10-22T19:57:47;12.13;;;3.72;;
14550;SDS011;7362;50.956;4.184;2022-10-22T20:00:45;8.40;;;4.07;;
14550;SDS011;7362;50.956;4.184;2022-10-22T20:09:39;10.80;;;3.75;;
14550;SDS011;7362;50.956;4.184;2022-10-22T20:12:27;8.65;;;3.53;;
14550;SDS011;7362;50.956;4.184;2022-10-22T20:15:11;10.23;;;4.47;;
14550;SDS011;7362;50.956;4.184;2022-10-22T20:18:02;8.48;;;3.50;;
14550;SDS011;7362;50.956;4.184;2022-10-22T21:44:23;6.72;;;3.58;;
14550;SDS011;7362;50.956;4.184;2022-10-22T21:51:29;8.68;;;3.63;;
14550;SDS011;7362;50.956;4.184;2022-10-22T22:07:59;5.15;;;2.88;;
14550;SDS011;7362;50.956;4.184;2022-10-22T22:10:48;7.25;;;3.28;;
14550;SDS011;7362;50.956;4.184;2022-10-22T22:16:38;8.23;;;3.00;;
14550;SDS011;7362;50.956;4.184;2022-10-22T22:23:06;7.97;;;3.97;;
14550;SDS011;7362;50.956;4.184;2022-10-22T22:25:38;9.65;;;3.38;;
14550;SDS011;7362;50.956;4.184;2022-10-22T22:31:17;7.45;;;2.88;;
14550;SDS011;7362;50.956;4.184;2022-10-22T22:37:06;7.82;;;3.15;;
14550;SDS011;7362;50.956;4.184;2022-10-22T22:39:36;7.15;;;3.42;;
14550;SDS011;7362;50.956;4.184;2022-10-22T22:42:06;7.88;;;3.60;;
14550;SDS011;7362;50.956;4.184;2022-10-22T22:44:37;11.43;;;4.25;;
14550;SDS011;7362;50.956;4.184;2022-10-22T22:47:03;10.90;;;3.20;;
14550;SDS011;7362;50.956;4.184;2022-10-22T22:49:37;6.43;;;3.20;;
14550;SDS011;7362;50.956;4.184;2022-10-22T22:52:08;11.07;;;3.50;;
14550;SDS011;7362;50.956;4.184;2022-10-22T22:54:41;12.40;;;4.03;;
14550;SDS011;7362;50.956;4.184;2022-10-22T22:57:29;7.97;;;3.83;;
14550;SDS011;7362;50.956;4.184;2022-10-22T23:00:24;8.90;;;3.60;;
14550;SDS011;7362;50.956;4.184;2022-10-22T23:08:50;8.38;;;3.50;;
14550;SDS011;7362;50.956;4.184;2022-10-22T23:11:26;9.23;;;3.17;;
14550;SDS011;7362;50.956;4.184;2022-10-22T23:38:00;7.97;;;3.53;;
14550;SDS011;7362;50.956;4.184;2022-10-22T23:40:28;6.00;;;3.13;;
14550;SDS011;7362;50.956;4.184;2022-10-22T23:43:00;6.72;;;3.15;;
14550;SDS011;7362;50.956;4.184;2022-10-22T23:45:34;4.57;;;2.25;;
14550;SDS011;7362;50.956;4.184;2022-10-22T23:48:05;5.03;;;2.65;;
14550;SDS011;7362;50.956;4.184;2022-10-22T23:50:31;5.18;;;2.30;;
14550;SDS011;7362;50.956;4.184;2022-10-22T23:53:16;4.40;;;2.05;;
